sensor_id;sensor_type;location;lat;lon;timestamp;temperature;humidity
9847;DHT22;4962;50.084;8.794;2022-08-03T00:01:02;25.10;97.10
9847;DHT22;4962;50.084;8.794;2022-08-03T00:03:30;25.00;97.30
9847;DHT22;4962;50.084;8.794;2022-08-03T00:05:57;25.00;97.50
9847;DHT22;4962;50.084;8.794;2022-08-03T00:08:24;25.00;97.70
9847;DHT22;4962;50.084;8.794;2022-08-03T00:10:51;25.00;98.00
9847;DHT22;4962;50.084;8.794;2022-08-03T00:13:17;25.00;98.20
9847;DHT22;4962;50.084;8.794;2022-08-03T00:15:44;25.00;98.40
9847;DHT22;4962;50.084;8.794;2022-08-03T00:18:13;25.00;98.60
9847;DHT22;4962;50.084;8.794;2022-08-03T00:20:40;25.00;98.70
9847;DHT22;4962;50.084;8.794;2022-08-03T00:23:07;25.00;98.80
9847;DHT22;4962;50.084;8.794;2022-08-03T00:25:34;25.00;99.00
9847;DHT22;4962;50.084;8.794;2022-08-03T00:28:01;24.90;99.20
9847;DHT22;4962;50.084;8.794;2022-08-03T00:30:28;25.00;99.50
9847;DHT22;4962;50.084;8.794;2022-08-03T00:32:56;24.90;99.70
9847;DHT22;4962;50.084;8.794;2022-08-03T00:35:25;24.80;99.90
9847;DHT22;4962;50.084;8.794;2022-08-03T00:37:52;24.80;99.90
9847;DHT22;4962;50.084;8.794;2022-08-03T00:40:19;24.80;99.90
9847;DHT22;4962;50.084;8.794;2022-08-03T00:42:48;24.80;99.90
9847;DHT22;4962;50.084;8.794;2022-08-03T00:45:16;24.80;99.90
9847;DHT22;4962;50.084;8.794;2022-08-03T00:47:43;24.80;99.90
9847;DHT22;4962;50.084;8.794;2022-08-03T00:50:10;24.80;99.90
9847;DHT22;4962;50.084;8.794;2022-08-03T00:52:39;24.80;99.90
9847;DHT22;4962;50.084;8.794;2022-08-03T00:55:07;24.70;99.90
9847;DHT22;4962;50.084;8.794;2022-08-03T00:57:34;24.60;99.90
9847;DHT22;4962;50.084;8.794;2022-08-03T01:00:01;24.60;99.90
9847;DHT22;4962;50.084;8.794;2022-08-03T01:02:28;24.60;99.90
9847;DHT22;4962;50.084;8.794;2022-08-03T01:04:55;24.50;99.90
9847;DHT22;4962;50.084;8.794;2022-08-03T01:07:28;24.50;99.90
9847;DHT22;4962;50.084;8.794;2022-08-03T01:10:04;24.50;99.90
9847;DHT22;4962;50.084;8.794;2022-08-03T01:12:37;24.50;99.90
9847;DHT22;4962;50.084;8.794;2022-08-03T01:15:10;24.50;99.90
9847;DHT22;4962;50.084;8.794;2022-08-03T01:17:42;24.40;99.90
9847;DHT22;4962;50.084;8.794;2022-08-03T01:20:13;24.40;99.90
9847;DHT22;4962;50.084;8.794;2022-08-03T01:23:02;24.40;99.90
9847;DHT22;4962;50.084;8.794;2022-08-03T01:25:39;24.40;99.90
9847;DHT22;4962;50.084;8.794;2022-08-03T01:28:32;24.30;99.90
9847;DHT22;4962;50.084;8.794;2022-08-03T01:31:06;24.30;99.90
9847;DHT22;4962;50.084;8.794;2022-08-03T01:33:36;24.30;99.90
9847;DHT22;4962;50.084;8.794;2022-08-03T01:36:08;24.20;99.90
9847;DHT22;4962;50.084;8.794;2022-08-03T01:38:40;24.20;99.90
9847;DHT22;4962;50.084;8.794;2022-08-03T01:41:11;24.20;99.90
9847;DHT22;4962;50.084;8.794;2022-08-03T01:43:42;24.20;99.90
9847;DHT22;4962;50.084;8.794;2022-08-03T01:46:14;24.20;99.90
9847;DHT22;4962;50.084;8.794;2022-08-03T01:48:44;24.20;99.90
9847;DHT22;4962;50.084;8.794;2022-08-03T01:51:12;24.20;99.90
9847;DHT22;4962;50.084;8.794;2022-08-03T01:53:41;24.10;99.90
9847;DHT22;4962;50.084;8.794;2022-08-03T01:56:08;24.10;99.90
9847;DHT22;4962;50.084;8.794;2022-08-03T01:58:36;24.10;99.90
9847;DHT22;4962;50.084;8.794;2022-08-03T02:01:04;24.10;99.90
9847;DHT22;4962;50.084;8.794;2022-08-03T02:03:36;24.10;99.90
9847;DHT22;4962;50.084;8.794;2022-08-03T02:06:06;24.00;99.90
9847;DHT22;4962;50.084;8.794;2022-08-03T02:08:37;24.00;99.90
9847;DHT22;4962;50.084;8.794;2022-08-03T02:11:04;24.00;99.90
9847;DHT22;4962;50.084;8.794;2022-08-03T02:13:33;23.90;99.90
9847;DHT22;4962;50.084;8.794;2022-08-03T02:16:01;23.80;99.90
9847;DHT22;4962;50.084;8.794;2022-08-03T02:18:29;23.70;99.90
9847;DHT22;4962;50.084;8.794;2022-08-03T02:20:59;23.70;99.90
9847;DHT22;4962;50.084;8.794;2022-08-03T02:23:26;23.70;99.90
9847;DHT22;4962;50.084;8.794;2022-08-03T02:25:57;23.70;99.90
9847;DHT22;4962;50.084;8.794;2022-08-03T02:28:31;23.70;99.90
9847;DHT22;4962;50.084;8.794;2022-08-03T02:31:03;23.60;99.90
9847;DHT22;4962;50.084;8.794;2022-08-03T02:33:35;23.60;99.90
9847;DHT22;4962;50.084;8.794;2022-08-03T02:36:05;23.50;99.90
9847;DHT22;4962;50.084;8.794;2022-08-03T02:38:36;23.50;99.90
9847;DHT22;4962;50.084;8.794;2022-08-03T02:41:08;23.40;99.90
9847;DHT22;4962;50.084;8.794;2022-08-03T02:43:39;23.40;99.90
9847;DHT22;4962;50.084;8.794;2022-08-03T02:46:08;23.40;99.90
9847;DHT22;4962;50.084;8.794;2022-08-03T02:48:36;23.40;99.90
9847;DHT22;4962;50.084;8.794;2022-08-03T02:51:05;23.40;99.90
9847;DHT22;4962;50.084;8.794;2022-08-03T02:53:32;23.40;99.90
9847;DHT22;4962;50.084;8.794;2022-08-03T02:56:01;23.40;99.90
9847;DHT22;4962;50.084;8.794;2022-08-03T02:58:30;23.40;99.90
9847;DHT22;4962;50.084;8.794;2022-08-03T03:00:58;23.40;99.90
9847;DHT22;4962;50.084;8.794;2022-08-03T03:03:25;23.40;99.90
9847;DHT22;4962;50.084;8.794;2022-08-03T03:05:53;23.40;99.90
9847;DHT22;4962;50.084;8.794;2022-08-03T03:08:23;23.40;99.90
9847;DHT22;4962;50.084;8.794;2022-08-03T03:10:51;23.40;99.90
9847;DHT22;4962;50.084;8.794;2022-08-03T03:13:19;23.50;99.90
9847;DHT22;4962;50.084;8.794;2022-08-03T03:15:46;23.50;99.90
9847;DHT22;4962;50.084;8.794;2022-08-03T03:18:14;23.50;99.90
9847;DHT22;4962;50.084;8.794;2022-08-03T03:20:42;23.50;99.90
9847;DHT22;4962;50.084;8.794;2022-08-03T03:23:11;23.60;99.90
9847;DHT22;4962;50.084;8.794;2022-08-03T03:25:40;23.60;99.90
9847;DHT22;4962;50.084;8.794;2022-08-03T03:28:08;23.70;99.90
9847;DHT22;4962;50.084;8.794;2022-08-03T03:30:35;23.80;99.90
9847;DHT22;4962;50.084;8.794;2022-08-03T03:33:02;23.80;99.90
9847;DHT22;4962;50.084;8.794;2022-08-03T03:35:29;23.80;99.90
9847;DHT22;4962;50.084;8.794;2022-08-03T03:37:56;23.80;99.90
9847;DHT22;4962;50.084;8.794;2022-08-03T03:40:23;23.80;99.90
9847;DHT22;4962;50.084;8.794;2022-08-03T03:42:52;23.80;99.90
9847;DHT22;4962;50.084;8.794;2022-08-03T03:45:19;23.80;99.90
9847;DHT22;4962;50.084;8.794;2022-08-03T03:47:47;23.80;99.90
9847;DHT22;4962;50.084;8.794;2022-08-03T03:50:14;23.80;99.90
9847;DHT22;4962;50.084;8.794;2022-08-03T03:52:44;23.80;99.90
9847;DHT22;4962;50.084;8.794;2022-08-03T03:55:15;23.80;99.90
9847;DHT22;4962;50.084;8.794;2022-08-03T03:57:42;23.80;99.90
9847;DHT22;4962;50.084;8.794;2022-08-03T04:00:12;23.80;99.90
9847;DHT22;4962;50.084;8.794;2022-08-03T04:02:39;23.90;99.90
9847;DHT22;4962;50.084;8.794;2022-08-03T04:05:12;23.90;99.90
9847;DHT22;4962;50.084;8.794;2022-08-03T04:07:58;23.90;99.90
9847;DHT22;4962;50.084;8.794;2022-08-03T04:10:46;23.90;99.90
9847;DHT22;4962;50.084;8.794;2022-08-03T04:13:28;24.00;99.90
9847;DHT22;4962;50.084;8.794;2022-08-03T04:15:58;24.00;99.90
9847;DHT22;4962;50.084;8.794;2022-08-03T04:18:27;24.00;99.90
9847;DHT22;4962;50.084;8.794;2022-08-03T04:20:58;24.00;99.90
9847;DHT22;4962;50.084;8.794;2022-08-03T04:23:28;24.10;99.90
9847;DHT22;4962;50.084;8.794;2022-08-03T04:25:56;24.10;99.90
9847;DHT22;4962;50.084;8.794;2022-08-03T04:28:25;24.20;99.90
9847;DHT22;4962;50.084;8.794;2022-08-03T04:30:54;24.30;99.90
9847;DHT22;4962;50.084;8.794;2022-08-03T04:33:25;24.30;99.90
9847;DHT22;4962;50.084;8.794;2022-08-03T04:35:54;24.40;99.90
9847;DHT22;4962;50.084;8.794;2022-08-03T04:38:26;24.50;99.90
9847;DHT22;4962;50.084;8.794;2022-08-03T04:40:55;24.50;99.90
9847;DHT22;4962;50.084;8.794;2022-08-03T04:43:23;24.60;99.90
9847;DHT22;4962;50.084;8.794;2022-08-03T04:45:51;24.70;99.90
9847;DHT22;4962;50.084;8.794;2022-08-03T04:48:18;24.70;99.90
9847;DHT22;4962;50.084;8.794;2022-08-03T04:50:47;24.80;99.90
9847;DHT22;4962;50.084;8.794;2022-08-03T04:53:15;24.90;99.90
9847;DHT22;4962;50.084;8.794;2022-08-03T04:55:42;24.90;99.90
9847;DHT22;4962;50.084;8.794;2022-08-03T04:58:09;25.00;99.90
9847;DHT22;4962;50.084;8.794;2022-08-03T05:00:37;25.30;99.90
9847;DHT22;4962;50.084;8.794;2022-08-03T05:03:04;25.60;99.90
9847;DHT22;4962;50.084;8.794;2022-08-03T05:05:30;26.00;99.90
9847;DHT22;4962;50.084;8.794;2022-08-03T05:07:59;26.40;99.90
9847;DHT22;4962;50.084;8.794;2022-08-03T05:10:26;26.80;99.90
9847;DHT22;4962;50.084;8.794;2022-08-03T05:12:53;27.30;99.90
9847;DHT22;4962;50.084;8.794;2022-08-03T05:15:20;27.60;99.90
9847;DHT22;4962;50.084;8.794;2022-08-03T05:17:47;28.00;99.90
9847;DHT22;4962;50.084;8.794;2022-08-03T05:20:14;28.40;99.90
9847;DHT22;4962;50.084;8.794;2022-08-03T05:22:41;28.90;99.90
9847;DHT22;4962;50.084;8.794;2022-08-03T05:25:09;29.40;99.90
9847;DHT22;4962;50.084;8.794;2022-08-03T05:27:37;29.80;99.60
9847;DHT22;4962;50.084;8.794;2022-08-03T05:30:04;30.10;98.60
9847;DHT22;4962;50.084;8.794;2022-08-03T05:32:32;30.50;97.80
9847;DHT22;4962;50.084;8.794;2022-08-03T05:34:58;31.00;96.90
9847;DHT22;4962;50.084;8.794;2022-08-03T05:37:25;31.40;96.10
9847;DHT22;4962;50.084;8.794;2022-08-03T05:39:52;31.80;95.10
9847;DHT22;4962;50.084;8.794;2022-08-03T05:42:20;32.20;94.20
9847;DHT22;4962;50.084;8.794;2022-08-03T05:44:47;32.60;93.20
9847;DHT22;4962;50.084;8.794;2022-08-03T05:47:14;33.00;92.70
9847;DHT22;4962;50.084;8.794;2022-08-03T05:49:41;33.30;91.20
9847;DHT22;4962;50.084;8.794;2022-08-03T05:52:08;33.70;90.50
9847;DHT22;4962;50.084;8.794;2022-08-03T05:54:35;34.00;89.30
9847;DHT22;4962;50.084;8.794;2022-08-03T05:57:05;34.30;87.70
9847;DHT22;4962;50.084;8.794;2022-08-03T05:59:37;34.60;86.20
9847;DHT22;4962;50.084;8.794;2022-08-03T06:02:04;35.00;84.60
9847;DHT22;4962;50.084;8.794;2022-08-03T06:04:31;35.40;82.90
9847;DHT22;4962;50.084;8.794;2022-08-03T06:06:59;35.70;80.80
9847;DHT22;4962;50.084;8.794;2022-08-03T06:09:25;35.90;79.10
9847;DHT22;4962;50.084;8.794;2022-08-03T06:11:54;36.20;77.80
9847;DHT22;4962;50.084;8.794;2022-08-03T06:14:21;36.40;76.90
9847;DHT22;4962;50.084;8.794;2022-08-03T06:16:49;36.70;75.70
9847;DHT22;4962;50.084;8.794;2022-08-03T06:19:16;37.00;74.50
9847;DHT22;4962;50.084;8.794;2022-08-03T06:21:43;37.40;73.40
9847;DHT22;4962;50.084;8.794;2022-08-03T06:24:10;37.70;72.20
9847;DHT22;4962;50.084;8.794;2022-08-03T06:26:37;38.00;71.00
9847;DHT22;4962;50.084;8.794;2022-08-03T06:29:04;38.30;69.70
9847;DHT22;4962;50.084;8.794;2022-08-03T06:31:30;38.60;68.20
9847;DHT22;4962;50.084;8.794;2022-08-03T06:33:59;38.80;66.50
9847;DHT22;4962;50.084;8.794;2022-08-03T06:36:26;39.00;65.20
9847;DHT22;4962;50.084;8.794;2022-08-03T06:38:56;39.20;64.50
9847;DHT22;4962;50.084;8.794;2022-08-03T06:41:22;39.40;63.70
9847;DHT22;4962;50.084;8.794;2022-08-03T06:43:49;39.60;62.70
9847;DHT22;4962;50.084;8.794;2022-08-03T06:46:16;39.90;61.80
9847;DHT22;4962;50.084;8.794;2022-08-03T06:48:43;40.10;61.00
9847;DHT22;4962;50.084;8.794;2022-08-03T06:51:12;40.40;60.30
9847;DHT22;4962;50.084;8.794;2022-08-03T06:53:39;40.60;59.30
9847;DHT22;4962;50.084;8.794;2022-08-03T06:56:07;40.80;58.80
9847;DHT22;4962;50.084;8.794;2022-08-03T06:58:34;41.10;58.30
9847;DHT22;4962;50.084;8.794;2022-08-03T07:01:01;41.30;58.30
9847;DHT22;4962;50.084;8.794;2022-08-03T07:03:46;41.60;57.00
9847;DHT22;4962;50.084;8.794;2022-08-03T07:06:15;41.90;56.30
9847;DHT22;4962;50.084;8.794;2022-08-03T07:08:41;42.10;55.40
9847;DHT22;4962;50.084;8.794;2022-08-03T07:11:08;42.30;54.60
9847;DHT22;4962;50.084;8.794;2022-08-03T07:13:35;42.40;53.80
9847;DHT22;4962;50.084;8.794;2022-08-03T07:16:02;42.40;53.00
9847;DHT22;4962;50.084;8.794;2022-08-03T07:18:32;42.40;52.80
9847;DHT22;4962;50.084;8.794;2022-08-03T07:20:59;42.50;52.70
9847;DHT22;4962;50.084;8.794;2022-08-03T07:23:27;42.70;52.10
9847;DHT22;4962;50.084;8.794;2022-08-03T07:25:54;42.80;51.10
9847;DHT22;4962;50.084;8.794;2022-08-03T07:28:21;42.90;51.10
9847;DHT22;4962;50.084;8.794;2022-08-03T07:30:48;43.00;50.90
9847;DHT22;4962;50.084;8.794;2022-08-03T07:33:15;43.20;50.60
9847;DHT22;4962;50.084;8.794;2022-08-03T07:35:42;43.50;50.40
9847;DHT22;4962;50.084;8.794;2022-08-03T07:38:09;43.70;50.20
9847;DHT22;4962;50.084;8.794;2022-08-03T07:40:37;44.10;50.00
9847;DHT22;4962;50.084;8.794;2022-08-03T07:43:04;44.50;49.50
9847;DHT22;4962;50.084;8.794;2022-08-03T07:45:31;44.90;48.70
9847;DHT22;4962;50.084;8.794;2022-08-03T07:47:58;45.30;48.30
9847;DHT22;4962;50.084;8.794;2022-08-03T07:50:27;45.60;47.40
9847;DHT22;4962;50.084;8.794;2022-08-03T07:52:53;45.90;46.70
9847;DHT22;4962;50.084;8.794;2022-08-03T07:55:23;46.20;46.20
9847;DHT22;4962;50.084;8.794;2022-08-03T07:58:03;46.40;45.60
9847;DHT22;4962;50.084;8.794;2022-08-03T08:00:30;46.60;45.20
9847;DHT22;4962;50.084;8.794;2022-08-03T08:02:59;46.90;44.50
9847;DHT22;4962;50.084;8.794;2022-08-03T08:05:27;47.20;43.70
9847;DHT22;4962;50.084;8.794;2022-08-03T08:07:54;47.40;43.20
9847;DHT22;4962;50.084;8.794;2022-08-03T08:10:21;47.60;42.60
9847;DHT22;4962;50.084;8.794;2022-08-03T08:12:48;47.80;42.00
9847;DHT22;4962;50.084;8.794;2022-08-03T08:15:16;48.00;41.30
9847;DHT22;4962;50.084;8.794;2022-08-03T08:17:45;48.00;40.90
9847;DHT22;4962;50.084;8.794;2022-08-03T08:20:16;48.10;40.30
9847;DHT22;4962;50.084;8.794;2022-08-03T08:22:43;48.30;39.80
9847;DHT22;4962;50.084;8.794;2022-08-03T08:25:10;48.30;38.90
9847;DHT22;4962;50.084;8.794;2022-08-03T08:27:41;48.30;38.70
9847;DHT22;4962;50.084;8.794;2022-08-03T08:30:09;48.20;38.50
9847;DHT22;4962;50.084;8.794;2022-08-03T08:32:37;48.00;38.30
9847;DHT22;4962;50.084;8.794;2022-08-03T08:35:05;47.60;38.20
9847;DHT22;4962;50.084;8.794;2022-08-03T08:38:02;47.00;36.80
9847;DHT22;4962;50.084;8.794;2022-08-03T08:40:29;46.20;36.70
9847;DHT22;4962;50.084;8.794;2022-08-03T08:42:56;45.40;36.90
9847;DHT22;4962;50.084;8.794;2022-08-03T08:45:31;44.60;37.40
9847;DHT22;4962;50.084;8.794;2022-08-03T08:48:02;43.80;37.90
9847;DHT22;4962;50.084;8.794;2022-08-03T08:50:29;43.00;38.50
9847;DHT22;4962;50.084;8.794;2022-08-03T08:52:59;42.40;39.10
9847;DHT22;4962;50.084;8.794;2022-08-03T08:55:28;41.80;39.70
9847;DHT22;4962;50.084;8.794;2022-08-03T08:57:57;41.20;40.30
9847;DHT22;4962;50.084;8.794;2022-08-03T09:00:26;40.60;41.10
9847;DHT22;4962;50.084;8.794;2022-08-03T09:02:53;40.10;41.90
9847;DHT22;4962;50.084;8.794;2022-08-03T09:05:21;39.70;42.50
9847;DHT22;4962;50.084;8.794;2022-08-03T09:07:48;39.40;43.20
9847;DHT22;4962;50.084;8.794;2022-08-03T09:10:17;39.10;43.60
9847;DHT22;4962;50.084;8.794;2022-08-03T09:12:48;38.70;44.10
9847;DHT22;4962;50.084;8.794;2022-08-03T09:15:20;38.50;44.70
9847;DHT22;4962;50.084;8.794;2022-08-03T09:17:49;38.20;45.00
9847;DHT22;4962;50.084;8.794;2022-08-03T09:20:18;37.80;45.50
9847;DHT22;4962;50.084;8.794;2022-08-03T09:22:54;37.50;46.00
9847;DHT22;4962;50.084;8.794;2022-08-03T09:25:29;37.30;46.50
9847;DHT22;4962;50.084;8.794;2022-08-03T09:28:05;37.10;46.70
9847;DHT22;4962;50.084;8.794;2022-08-03T09:30:32;36.90;47.00
9847;DHT22;4962;50.084;8.794;2022-08-03T09:32:59;36.80;47.60
9847;DHT22;4962;50.084;8.794;2022-08-03T09:35:27;36.60;48.00
9847;DHT22;4962;50.084;8.794;2022-08-03T09:38:09;36.50;48.00
9847;DHT22;4962;50.084;8.794;2022-08-03T09:40:37;36.30;48.30
9847;DHT22;4962;50.084;8.794;2022-08-03T09:43:04;36.10;48.30
9847;DHT22;4962;50.084;8.794;2022-08-03T09:45:33;36.00;48.60
9847;DHT22;4962;50.084;8.794;2022-08-03T09:48:21;35.80;49.10
9847;DHT22;4962;50.084;8.794;2022-08-03T09:50:49;35.60;49.50
9847;DHT22;4962;50.084;8.794;2022-08-03T09:53:18;35.40;50.00
9847;DHT22;4962;50.084;8.794;2022-08-03T09:55:53;35.30;50.20
9847;DHT22;4962;50.084;8.794;2022-08-03T09:58:23;35.30;50.60
9847;DHT22;4962;50.084;8.794;2022-08-03T10:00:56;35.10;51.10
9847;DHT22;4962;50.084;8.794;2022-08-03T10:03:24;35.10;51.50
9847;DHT22;4962;50.084;8.794;2022-08-03T10:05:51;35.00;51.10
9847;DHT22;4962;50.084;8.794;2022-08-03T10:08:26;34.90;51.80
9847;DHT22;4962;50.084;8.794;2022-08-03T10:10:53;34.90;51.00
9847;DHT22;4962;50.084;8.794;2022-08-03T10:13:22;34.80;51.00
9847;DHT22;4962;50.084;8.794;2022-08-03T10:15:49;34.70;51.10
9847;DHT22;4962;50.084;8.794;2022-08-03T10:18:16;34.60;51.30
9847;DHT22;4962;50.084;8.794;2022-08-03T10:20:47;34.50;51.70
9847;DHT22;4962;50.084;8.794;2022-08-03T10:23:16;34.40;52.10
9847;DHT22;4962;50.084;8.794;2022-08-03T10:25:45;34.40;52.40
9847;DHT22;4962;50.084;8.794;2022-08-03T10:28:16;34.30;52.70
9847;DHT22;4962;50.084;8.794;2022-08-03T10:30:47;34.30;52.90
9847;DHT22;4962;50.084;8.794;2022-08-03T10:33:19;34.10;52.90
9847;DHT22;4962;50.084;8.794;2022-08-03T10:35:47;34.00;53.20
9847;DHT22;4962;50.084;8.794;2022-08-03T10:38:19;34.00;53.50
9847;DHT22;4962;50.084;8.794;2022-08-03T10:40:53;34.00;53.50
9847;DHT22;4962;50.084;8.794;2022-08-03T10:43:21;33.90;53.50
9847;DHT22;4962;50.084;8.794;2022-08-03T10:45:51;33.80;53.70
9847;DHT22;4962;50.084;8.794;2022-08-03T10:48:19;33.70;54.70
9847;DHT22;4962;50.084;8.794;2022-08-03T10:50:47;33.70;54.30
9847;DHT22;4962;50.084;8.794;2022-08-03T10:53:15;33.70;54.70
9847;DHT22;4962;50.084;8.794;2022-08-03T10:55:44;33.70;54.80
9847;DHT22;4962;50.084;8.794;2022-08-03T10:58:50;33.70;55.60
9847;DHT22;4962;50.084;8.794;2022-08-03T11:01:18;33.70;55.00
9847;DHT22;4962;50.084;8.794;2022-08-03T11:04:13;33.70;54.60
9847;DHT22;4962;50.084;8.794;2022-08-03T11:06:41;33.70;54.30
9847;DHT22;4962;50.084;8.794;2022-08-03T11:09:17;33.60;54.10
9847;DHT22;4962;50.084;8.794;2022-08-03T11:11:46;33.60;54.10
9847;DHT22;4962;50.084;8.794;2022-08-03T11:14:18;33.60;54.30
9847;DHT22;4962;50.084;8.794;2022-08-03T11:16:46;33.50;54.30
9847;DHT22;4962;50.084;8.794;2022-08-03T11:19:15;33.50;54.40
9847;DHT22;4962;50.084;8.794;2022-08-03T11:22:02;33.50;54.20
9847;DHT22;4962;50.084;8.794;2022-08-03T11:24:57;33.50;54.10
9847;DHT22;4962;50.084;8.794;2022-08-03T11:27:26;33.50;54.30
9847;DHT22;4962;50.084;8.794;2022-08-03T11:29:56;33.50;54.10
9847;DHT22;4962;50.084;8.794;2022-08-03T11:32:57;33.50;54.30
9847;DHT22;4962;50.084;8.794;2022-08-03T11:35:26;33.50;54.60
9847;DHT22;4962;50.084;8.794;2022-08-03T11:38:11;33.50;55.00
9847;DHT22;4962;50.084;8.794;2022-08-03T11:40:40;33.50;55.10
9847;DHT22;4962;50.084;8.794;2022-08-03T11:43:09;33.50;55.10
9847;DHT22;4962;50.084;8.794;2022-08-03T11:45:37;33.50;55.30
9847;DHT22;4962;50.084;8.794;2022-08-03T11:48:15;33.50;55.00
9847;DHT22;4962;50.084;8.794;2022-08-03T11:50:42;33.50;55.00
9847;DHT22;4962;50.084;8.794;2022-08-03T11:53:14;33.60;55.00
9847;DHT22;4962;50.084;8.794;2022-08-03T11:55:42;33.50;54.70
9847;DHT22;4962;50.084;8.794;2022-08-03T11:58:17;33.60;54.60
9847;DHT22;4962;50.084;8.794;2022-08-03T12:00:46;33.60;54.70
9847;DHT22;4962;50.084;8.794;2022-08-03T12:03:15;33.60;54.70
9847;DHT22;4962;50.084;8.794;2022-08-03T12:05:45;33.50;54.70
9847;DHT22;4962;50.084;8.794;2022-08-03T12:08:13;33.50;54.70
9847;DHT22;4962;50.084;8.794;2022-08-03T12:10:47;33.60;54.70
9847;DHT22;4962;50.084;8.794;2022-08-03T12:13:14;33.50;54.70
9847;DHT22;4962;50.084;8.794;2022-08-03T12:15:41;33.60;55.00
9847;DHT22;4962;50.084;8.794;2022-08-03T12:18:16;33.50;54.80
9847;DHT22;4962;50.084;8.794;2022-08-03T12:20:48;33.50;54.90
9847;DHT22;4962;50.084;8.794;2022-08-03T12:23:15;33.60;54.80
9847;DHT22;4962;50.084;8.794;2022-08-03T12:25:44;33.60;54.60
9847;DHT22;4962;50.084;8.794;2022-08-03T12:28:14;33.60;54.90
9847;DHT22;4962;50.084;8.794;2022-08-03T12:30:46;33.60;55.00
9847;DHT22;4962;50.084;8.794;2022-08-03T12:33:19;33.50;55.20
9847;DHT22;4962;50.084;8.794;2022-08-03T12:35:48;33.60;55.40
9847;DHT22;4962;50.084;8.794;2022-08-03T12:38:20;33.60;55.00
9847;DHT22;4962;50.084;8.794;2022-08-03T12:41:05;33.60;54.70
9847;DHT22;4962;50.084;8.794;2022-08-03T12:43:33;33.70;54.70
9847;DHT22;4962;50.084;8.794;2022-08-03T12:46:12;33.70;54.70
9847;DHT22;4962;50.084;8.794;2022-08-03T12:49:08;33.70;55.10
9847;DHT22;4962;50.084;8.794;2022-08-03T12:51:56;33.70;54.80
9847;DHT22;4962;50.084;8.794;2022-08-03T12:54:25;33.70;54.70
9847;DHT22;4962;50.084;8.794;2022-08-03T12:56:59;33.70;54.60
9847;DHT22;4962;50.084;8.794;2022-08-03T12:59:27;33.70;54.70
9847;DHT22;4962;50.084;8.794;2022-08-03T13:01:54;33.70;54.60
9847;DHT22;4962;50.084;8.794;2022-08-03T13:04:27;33.70;54.70
9847;DHT22;4962;50.084;8.794;2022-08-03T13:07:02;33.60;54.80
9847;DHT22;4962;50.084;8.794;2022-08-03T13:09:30;33.60;54.60
9847;DHT22;4962;50.084;8.794;2022-08-03T13:12:07;33.60;54.80
9847;DHT22;4962;50.084;8.794;2022-08-03T13:14:34;33.60;55.00
9847;DHT22;4962;50.084;8.794;2022-08-03T13:17:02;33.60;55.20
9847;DHT22;4962;50.084;8.794;2022-08-03T13:19:30;33.60;55.20
9847;DHT22;4962;50.084;8.794;2022-08-03T13:21:57;33.60;54.80
9847;DHT22;4962;50.084;8.794;2022-08-03T13:24:58;33.60;54.60
9847;DHT22;4962;50.084;8.794;2022-08-03T13:27:26;33.60;54.60
9847;DHT22;4962;50.084;8.794;2022-08-03T13:29:53;33.60;54.70
9847;DHT22;4962;50.084;8.794;2022-08-03T13:32:21;33.70;54.80
9847;DHT22;4962;50.084;8.794;2022-08-03T13:34:49;33.70;54.70
9847;DHT22;4962;50.084;8.794;2022-08-03T13:37:16;33.70;54.70
9847;DHT22;4962;50.084;8.794;2022-08-03T13:39:43;33.70;54.70
9847;DHT22;4962;50.084;8.794;2022-08-03T13:42:10;33.70;54.90
9847;DHT22;4962;50.084;8.794;2022-08-03T13:44:37;33.70;55.00
9847;DHT22;4962;50.084;8.794;2022-08-03T13:47:04;33.70;55.10
9847;DHT22;4962;50.084;8.794;2022-08-03T13:49:31;33.70;55.20
9847;DHT22;4962;50.084;8.794;2022-08-03T13:51:59;33.80;55.10
9847;DHT22;4962;50.084;8.794;2022-08-03T13:54:26;33.80;54.90
9847;DHT22;4962;50.084;8.794;2022-08-03T13:57:00;33.80;54.60
9847;DHT22;4962;50.084;8.794;2022-08-03T13:59:27;33.80;54.40
9847;DHT22;4962;50.084;8.794;2022-08-03T14:01:54;33.80;54.60
9847;DHT22;4962;50.084;8.794;2022-08-03T14:04:21;33.80;54.60
9847;DHT22;4962;50.084;8.794;2022-08-03T14:06:56;33.80;54.40
9847;DHT22;4962;50.084;8.794;2022-08-03T14:09:24;33.80;54.70
9847;DHT22;4962;50.084;8.794;2022-08-03T14:11:51;33.70;54.50
9847;DHT22;4962;50.084;8.794;2022-08-03T14:14:18;33.70;54.50
9847;DHT22;4962;50.084;8.794;2022-08-03T14:16:45;33.70;54.50
9847;DHT22;4962;50.084;8.794;2022-08-03T14:19:14;33.70;54.50
9847;DHT22;4962;50.084;8.794;2022-08-03T14:21:41;33.70;54.30
9847;DHT22;4962;50.084;8.794;2022-08-03T14:24:08;33.70;54.40
9847;DHT22;4962;50.084;8.794;2022-08-03T14:26:36;33.70;54.40
9847;DHT22;4962;50.084;8.794;2022-08-03T14:29:03;33.70;54.40
9847;DHT22;4962;50.084;8.794;2022-08-03T14:31:30;33.80;54.00
9847;DHT22;4962;50.084;8.794;2022-08-03T14:33:57;33.80;53.80
9847;DHT22;4962;50.084;8.794;2022-08-03T14:36:24;33.80;53.90
9847;DHT22;4962;50.084;8.794;2022-08-03T14:38:51;33.80;53.60
9847;DHT22;4962;50.084;8.794;2022-08-03T14:41:18;33.90;53.30
9847;DHT22;4962;50.084;8.794;2022-08-03T14:43:47;33.90;53.00
9847;DHT22;4962;50.084;8.794;2022-08-03T14:46:14;33.90;53.10
9847;DHT22;4962;50.084;8.794;2022-08-03T14:48:41;34.00;53.20
9847;DHT22;4962;50.084;8.794;2022-08-03T14:51:08;34.00;53.00
9847;DHT22;4962;50.084;8.794;2022-08-03T14:53:36;34.10;53.70
9847;DHT22;4962;50.084;8.794;2022-08-03T14:56:03;34.10;54.30
9847;DHT22;4962;50.084;8.794;2022-08-03T14:58:30;34.10;54.40
9847;DHT22;4962;50.084;8.794;2022-08-03T15:00:59;34.00;54.20
9847;DHT22;4962;50.084;8.794;2022-08-03T15:03:26;34.10;54.30
9847;DHT22;4962;50.084;8.794;2022-08-03T15:05:54;34.00;54.10
9847;DHT22;4962;50.084;8.794;2022-08-03T15:08:22;34.00;53.50
9847;DHT22;4962;50.084;8.794;2022-08-03T15:10:49;33.90;53.40
9847;DHT22;4962;50.084;8.794;2022-08-03T15:13:17;33.90;53.40
9847;DHT22;4962;50.084;8.794;2022-08-03T15:15:45;33.90;53.40
9847;DHT22;4962;50.084;8.794;2022-08-03T15:18:14;33.90;53.40
9847;DHT22;4962;50.084;8.794;2022-08-03T15:20:42;33.90;53.20
9847;DHT22;4962;50.084;8.794;2022-08-03T15:23:09;33.80;53.00
9847;DHT22;4962;50.084;8.794;2022-08-03T15:25:35;33.80;52.70
9847;DHT22;4962;50.084;8.794;2022-08-03T15:28:03;33.80;52.40
9847;DHT22;4962;50.084;8.794;2022-08-03T15:30:30;33.80;52.40
9847;DHT22;4962;50.084;8.794;2022-08-03T15:33:00;33.80;52.30
9847;DHT22;4962;50.084;8.794;2022-08-03T15:35:29;33.80;52.20
9847;DHT22;4962;50.084;8.794;2022-08-03T15:37:56;33.80;52.10
9847;DHT22;4962;50.084;8.794;2022-08-03T15:40:22;33.80;51.70
9847;DHT22;4962;50.084;8.794;2022-08-03T15:42:49;33.80;51.40
9847;DHT22;4962;50.084;8.794;2022-08-03T15:45:16;33.80;50.90
9847;DHT22;4962;50.084;8.794;2022-08-03T15:47:43;33.80;50.80
9847;DHT22;4962;50.084;8.794;2022-08-03T15:50:10;33.80;50.80
9847;DHT22;4962;50.084;8.794;2022-08-03T15:52:38;33.70;50.70
9847;DHT22;4962;50.084;8.794;2022-08-03T15:55:06;33.70;50.50
9847;DHT22;4962;50.084;8.794;2022-08-03T15:57:33;33.70;50.50
9847;DHT22;4962;50.084;8.794;2022-08-03T16:00:01;33.70;51.20
9847;DHT22;4962;50.084;8.794;2022-08-03T16:02:28;33.60;50.40
9847;DHT22;4962;50.084;8.794;2022-08-03T16:04:55;33.60;50.60
9847;DHT22;4962;50.084;8.794;2022-08-03T16:07:28;33.60;50.40
9847;DHT22;4962;50.084;8.794;2022-08-03T16:10:15;33.60;50.40
9847;DHT22;4962;50.084;8.794;2022-08-03T16:12:43;33.60;50.00
9847;DHT22;4962;50.084;8.794;2022-08-03T16:15:12;33.60;49.90
9847;DHT22;4962;50.084;8.794;2022-08-03T16:17:39;33.60;49.90